1286-й км

Карта отелей и гостиниц, располагающихся рядом с аэропортом 1286-й км :

1286-й км Республика Коми 62° 10' 19.0812" N, 49° 44' 32.5788" E
1286-й км Республика Коми 62° 10' 19.0812" N, 49° 44' 32.5788" E
Код аэродрома ИКАО
HF0V
Код аэродрома RU
ХФ0Ж
Координаты
N62.17197° E049.74238°
Превышение над уровнем моря
132
Основная полоса
04/22
Курс магнитный
040,7/220,7
Длина основной ВПП
25
Ширина основной ВПП
20
Покрытие основной ВПП
Твёрдое (бетон)
Освещение ВПП
Нет
Тип: 
Вертодром
Класс аэродрома: 
Принадлежность: 
ГА
Статус: 
Действующий
Сайт: 
E-mail аэродрома: 
Страна: 
Россия
Регион: 
Республика Коми
Город: 
Дополнительная информация: 
Оператор: нет данных.

Найти трансфер

С помощью этой формы Вы можете найти трансфер из аэропорта 1286-й км в город, аэропорт или вокзал:

Карта места

Javascript is required to view this map.

Погода в аэропортах:

Авиационная погода в Mărculeşti International Airport

Регион: 
Погода METAR: 
LUBM 200700Z 09005KT 5000 BR NSC M07/M10 Q1019 R25/442236
Время наблюдения
2021-01-20T07:00:00Z
Температура C
-7.0
Точка росы
-10.0
Направление ветра
90
Скорость ветра (узлы)
5
Метео видимость
3.11
Явления погоды
BR
Условия полета
MVFR

Авиационная погода в Аулие-Ата

Регион: 
Погода METAR: 
UADD 251530Z 01002MPS 1300 R13/P2000 BR OVC003 M06/M07 Q1029 R13/890150 NOSIG RMK QBB100 MT OBSC QFE714/0952
Время наблюдения
2021-01-25T15:30:00Z
Температура C
-6.0
Точка росы
-7.0
Направление ветра
10
Скорость ветра (узлы)
4
Метео видимость
0.81
Явления погоды
BR
Условия полета
LIFR
Аэропорт подробнее: 

Авиационная погода в Каяани

Регион: 
Погода METAR: 
EFKI 251550Z AUTO 08006KT 9999 -SHSN OVC014 M01/M01 Q0998
Время наблюдения
2021-01-25T15:50:00Z
Температура C
-1.0
Точка росы
-1.0
Направление ветра
80
Скорость ветра (узлы)
6
Метео видимость
6.21
Явления погоды
-SHSN
Условия полета
MVFR

Авиационная погода в Николаеве

Регион: 
Погода METAR: 
UKON 251230Z 16010MPS 9000 -SHRA SCT///CB 10/07 Q1001 R04/290165 NOSIG
Время наблюдения
2021-01-25T12:30:00Z
Температура C
10.0
Точка росы
7.0
Направление ветра
160
Скорость ветра (узлы)
19
Метео видимость
5.59
Явления погоды
-SHRA
Условия полета